Архив погоды в Советской Гавани

Метеограмма Советская Гавань
Четверг, 27 Июня
Время местн. Темп Ветер Видим Явления Облачность нижн/средн/верх Атм. давл. Влжн Точка росы ВНГО R Сост. почвы Tg s
Напр Скр Прв ур.ст ур.м изм
10:00 +15.1° С-В 2 - 50 км - переменная облачность 755 757 -0.1 60% +7.5° 1 км - - - -
07:00 +9° штиль 0 - 20 км - облачно 755 757 +0.2 86% +6.8° 1 км 0 Сухая (без трещин) - -
04:00 +7.6° штиль 0 - 10 км - переменная облачность 755 757 -0.2 90% +6° - - - - -
01:00 +9.7° штиль 0 - 26 км - облачно 755 757 -0.9 84% +7.1° 1 км - - - -
Среда, 26 Июня
Время местн. Темп Ветер Видим Явления Облачность нижн/средн/верх Атм. давл. Влжн Точка росы ВНГО R Сост. почвы Tg s
Напр Скр Прв ур.ст ур.м изм
22:00 +9.4° С 2 - 15 км - облачно 756 758 +0.6 88% +7.5° 600 м - - - -
19:00 +9.9° С-В 4 - 20 км - облачно 756 757 -0.3 83% +7.2° 1 км 0 - - -
16:00 +10.3° С,С-В 2 - 20 км - облачно 756 758 +0.2 81% +7.1° 600 м - - - -
13:00 +11.2° С-В 4 - 20 км - облачно 756 758 0 75% +6.9° 600 м - - - -
10:00 +10.2° С-В 2 - 4 км дымка облачно 756 758 +1 82% +7.2° 600 м - - - -
07:00 +9.9° В 2 - 20 км - облачно 755 757 +1.6 88% +8° 1 км 0.3 Влажная (без луж) - -
04:00 +11.8° С-В 2 - 19 км небо без изменений {ливневые осадки} облачно 753 755 +1 91% +10.3° 1 км - - - -
01:00 +13.2° С 2 - 18 км - облачно 752 754 +1.6 91% +11.7° 1 км - - - -
Вторник, 25 Июня
Время местн. Темп Ветер Видим Явления Облачность нижн/средн/верх Атм. давл. Влжн Точка росы ВНГО R Сост. почвы Tg s
Напр Скр Прв ур.ст ур.м изм
22:00 +21.7° Ю-З 2 - 30 км небо без изменений {ливневые осадки} облачно 751 752 +1 77% +17.5° 1 км - - - -
19:00 +22.3° Ю,Ю-З 4 - 20 км небо без изменений {ливневые осадки} облачно 750 751 -0.7 79% +18.5° 1 км 0.6 - - -
16:00 +17.6° С 2 - 50 км ливневый дождь облачно 750 752 -1.6 75% +13.1° 1 км - - - -
13:00 +16.7° С-В 2 - 50 км ливневый дождь облачно 752 754 -0.9 80% +13.3° 1 км - - - -
10:00 +22.3° З 2 - 50 км - облачно 753 755 -1.9 62% +14.7° 1 км - - - -
07:00 +13.9° штиль 0 - 50 км - облачно 755 756 -0.7 84% +11.3° 1 км 0 Сухая (без трещин) - -
04:00 +11.3° штиль 0 - 10 км - облачно 755 757 -0.9 93% +10.2° 1 км - - - -
01:00 +12° штиль 0 - 14 км - облачно 756 758 -0.8 91% +10.5° 1 км - - - -
Понедельник, 24 Июня
Время местн. Темп Ветер Видим Явления Облачность нижн/средн/верх Атм. давл. Влжн Точка росы ВНГО R Сост. почвы Tg s
Напр Скр Прв ур.ст ур.м изм
22:00 +13.2° С-В 2 - 10 км - облачно 757 759 +0.8 85% +10.8° 1 км - - - -
19:00 +20.2° Ю-З 5 - 20 км - облачно 756 758 -0.2 63% +12.9° 1 км 0 - - -
16:00 +21.4° Ю 2 - 20 км - облачно 756 758 -0.5 57% +12.6° 1 км - - - -
13:00 +17.6° С 2 - 20 км - переменная облачность 757 759 -0.8 75% +13.2° 1 км - - - -
10:00 +13.5° С-В 2 - 2 км дымка {туман} облачно 758 760 -0.2 91% +12° 200 м - - - -
07:00 +11.2° штиль 0 - 4 км дымка {туман} облачно 758 760 +0.2 97% +10.7° 600 м 0 Сухая (без трещин) - -